createdAt,value
2024-04-23T00:00:33.974Z,0.00
2024-04-23T00:01:34.037Z,0.00
2024-04-23T00:02:33.980Z,0.00
2024-04-23T00:03:33.955Z,0.00
2024-04-23T00:04:34.015Z,0.00
2024-04-23T00:05:33.944Z,0.00
2024-04-23T00:06:33.935Z,0.00
2024-04-23T00:07:33.907Z,0.00
2024-04-23T00:08:33.903Z,0.00
2024-04-23T00:09:33.895Z,0.00
2024-04-23T00:10:33.996Z,0.00
2024-04-23T00:11:33.950Z,0.00
2024-04-23T00:12:33.868Z,0.00
2024-04-23T00:13:33.860Z,0.00
2024-04-23T00:14:33.815Z,0.00
2024-04-23T00:15:33.826Z,0.00
2024-04-23T00:16:33.875Z,0.00
2024-04-23T00:17:33.962Z,0.00
2024-04-23T00:18:33.939Z,0.00
2024-04-23T00:19:33.839Z,0.00
2024-04-23T00:20:33.806Z,0.00
2024-04-23T00:21:33.779Z,0.00
2024-04-23T00:22:33.816Z,0.00
2024-04-23T00:23:33.794Z,0.00
2024-04-23T00:24:33.814Z,0.00
2024-04-23T00:25:33.870Z,0.00
2024-04-23T00:26:33.707Z,0.00
2024-04-23T00:27:33.700Z,0.00
2024-04-23T00:28:33.747Z,0.00
2024-04-23T00:29:33.709Z,0.00
2024-04-23T00:30:33.689Z,0.00
2024-04-23T00:31:33.704Z,0.00
2024-04-23T00:32:33.731Z,0.00
2024-04-23T00:33:33.677Z,0.00
2024-04-23T00:34:33.679Z,0.00
2024-04-23T00:35:33.623Z,0.00
2024-04-23T00:36:33.596Z,0.00
2024-04-23T00:37:33.650Z,0.00
2024-04-23T00:38:33.590Z,0.00
2024-04-23T00:39:33.599Z,0.00
2024-04-23T00:40:33.667Z,0.00
2024-04-23T00:41:35.910Z,0.00
2024-04-23T00:42:33.547Z,0.00
2024-04-23T00:43:33.588Z,0.00
2024-04-23T00:44:33.574Z,0.00
2024-04-23T00:45:33.534Z,0.00
2024-04-23T00:46:33.536Z,0.00
2024-04-23T00:47:33.574Z,0.00
2024-04-23T00:48:33.576Z,0.00
2024-04-23T00:49:33.504Z,0.00
2024-04-23T00:50:33.467Z,0.00
2024-04-23T00:51:33.466Z,0.00
2024-04-23T00:52:33.502Z,0.00
2024-04-23T00:53:33.487Z,0.00
2024-04-23T00:54:33.440Z,0.00
2024-04-23T00:55:33.510Z,0.00
2024-04-23T00:56:33.427Z,0.00
2024-04-23T00:57:33.413Z,0.00
2024-04-23T00:58:33.423Z,0.00
2024-04-23T00:59:33.391Z,0.00
2024-04-23T01:00:33.383Z,0.00
2024-04-23T01:01:33.413Z,0.00
2024-04-23T01:02:33.402Z,0.00
2024-04-23T01:03:33.393Z,0.00
2024-04-23T01:04:33.395Z,0.00
2024-04-23T01:05:33.355Z,0.00
2024-04-23T01:06:33.307Z,0.00
2024-04-23T01:07:33.355Z,0.00
2024-04-23T01:08:33.289Z,0.00
2024-04-23T01:09:33.280Z,0.00
2024-04-23T01:10:33.354Z,0.00
2024-04-23T01:11:33.283Z,0.00
2024-04-23T01:12:33.283Z,0.00
2024-04-23T01:13:33.334Z,0.00
2024-04-23T01:14:33.227Z,0.00
2024-04-23T01:15:33.223Z,0.00
2024-04-23T01:16:33.274Z,0.00
2024-04-23T01:17:33.223Z,0.00
2024-04-23T01:18:33.196Z,0.00
2024-04-23T01:19:33.232Z,0.00
2024-04-23T01:20:33.161Z,0.00
2024-04-23T01:21:33.185Z,0.00
2024-04-23T01:22:33.161Z,0.00
2024-04-23T01:23:33.144Z,0.00
2024-04-23T01:24:33.126Z,0.00
2024-04-23T01:25:33.137Z,0.00
2024-04-23T01:26:33.145Z,0.00
2024-04-23T01:27:33.116Z,0.00
2024-04-23T01:28:33.119Z,0.00
2024-04-23T01:29:33.084Z,0.00
2024-04-23T01:30:33.074Z,0.00
2024-04-23T01:31:33.092Z,0.00
2024-04-23T01:32:33.147Z,0.00
2024-04-23T01:33:33.118Z,0.00
2024-04-23T01:34:33.115Z,0.00
2024-04-23T01:35:33.047Z,0.00
2024-04-23T01:36:33.023Z,0.00
2024-04-23T01:37:33.084Z,0.00
2024-04-23T01:38:32.996Z,0.00
2024-04-23T01:39:33.031Z,0.00
2024-04-23T01:40:33.000Z,0.00
2024-04-23T01:41:32.943Z,0.00
2024-04-23T01:42:32.969Z,0.00
2024-04-23T01:43:32.955Z,0.00
2024-04-23T01:44:32.922Z,0.00
2024-04-23T01:45:32.946Z,0.00
2024-04-23T01:46:32.965Z,0.00
2024-04-23T01:47:32.925Z,0.00
2024-04-23T01:48:32.931Z,0.00
2024-04-23T01:49:32.927Z,0.00
2024-04-23T01:50:32.874Z,0.00
2024-04-23T01:51:32.857Z,0.00
2024-04-23T01:52:32.859Z,0.00
2024-04-23T01:53:32.857Z,0.00
2024-04-23T01:54:32.843Z,0.00
2024-04-23T01:55:32.859Z,0.00
2024-04-23T01:56:32.812Z,0.00
2024-04-23T01:57:32.805Z,0.00
2024-04-23T01:58:32.868Z,0.00
2024-04-23T01:59:32.859Z,0.00
2024-04-23T02:00:32.776Z,0.00
2024-04-23T02:01:32.783Z,0.00
2024-04-23T02:02:32.806Z,0.00
2024-04-23T02:03:32.816Z,0.00
2024-04-23T02:04:32.764Z,0.00
2024-04-23T02:05:32.715Z,0.00
2024-04-23T02:06:32.704Z,0.00
2024-04-23T02:07:32.767Z,0.00
2024-04-23T02:08:32.692Z,0.00
2024-04-23T02:09:32.707Z,0.00
2024-04-23T02:10:32.722Z,0.00
2024-04-23T02:11:32.787Z,0.00
2024-04-23T02:12:32.672Z,0.00
2024-04-23T02:13:32.666Z,0.00
2024-04-23T02:14:32.626Z,0.00
2024-04-23T02:15:32.659Z,0.00
2024-04-23T02:16:32.665Z,0.00
2024-04-23T02:17:32.700Z,0.00
2024-04-23T02:18:32.635Z,0.00
2024-04-23T02:19:32.615Z,0.00
2024-04-23T02:20:32.615Z,0.00
2024-04-23T02:21:32.558Z,0.00
2024-04-23T02:22:32.585Z,0.00
2024-04-23T02:23:32.550Z,0.00
2024-04-23T02:24:32.530Z,0.00
2024-04-23T02:25:32.575Z,0.00
2024-04-23T02:26:32.531Z,0.00
2024-04-23T02:27:32.516Z,0.00
2024-04-23T02:28:32.490Z,0.00
2024-04-23T02:29:32.480Z,0.00
2024-04-23T02:30:32.489Z,0.00
2024-04-23T02:31:32.552Z,0.00
2024-04-23T02:32:32.533Z,0.00
2024-04-23T02:33:32.560Z,0.00
2024-04-23T02:34:32.521Z,0.00
2024-04-23T02:35:32.403Z,0.00
2024-04-23T02:36:32.417Z,0.00
2024-04-23T02:37:32.424Z,0.00
2024-04-23T02:38:32.378Z,0.00
2024-04-23T02:39:32.384Z,0.00
2024-04-23T02:40:32.397Z,0.00
2024-04-23T02:41:32.372Z,0.00
2024-04-23T02:42:32.368Z,0.00
2024-04-23T02:43:32.372Z,0.00
2024-04-23T02:44:32.329Z,0.00
2024-04-23T02:45:32.345Z,0.00
2024-04-23T02:46:32.355Z,0.00
2024-04-23T02:47:32.342Z,0.00
2024-04-23T02:48:32.340Z,0.00
2024-04-23T02:49:32.320Z,0.00
2024-04-23T02:50:32.288Z,0.00
2024-04-23T02:51:32.283Z,0.00
2024-04-23T02:52:32.927Z,0.00
2024-04-23T02:53:32.250Z,0.00
2024-04-23T02:54:32.262Z,0.00
2024-04-23T02:55:32.298Z,0.00
2024-04-23T02:56:32.214Z,0.00
2024-04-23T02:57:32.203Z,0.00
2024-04-23T02:58:32.214Z,0.00
2024-04-23T02:59:32.213Z,0.00
2024-04-23T03:00:32.195Z,0.00
2024-04-23T03:01:32.205Z,0.00
2024-04-23T03:02:32.326Z,0.00
2024-04-23T03:03:32.199Z,0.00
2024-04-23T03:04:32.176Z,0.00
2024-04-23T03:05:32.114Z,0.00
2024-04-23T03:06:32.107Z,0.00
2024-04-23T03:07:32.132Z,0.00
2024-04-23T03:08:35.506Z,0.00
2024-04-23T03:09:32.113Z,0.00
2024-04-23T03:10:32.168Z,0.00
2024-04-23T03:11:32.081Z,0.00
2024-04-23T03:12:32.044Z,0.00
2024-04-23T03:13:32.087Z,0.00
2024-04-23T03:14:32.051Z,0.00
2024-04-23T03:15:32.042Z,0.00
2024-04-23T03:16:32.086Z,0.00
2024-04-23T03:17:32.141Z,0.00
2024-04-23T03:18:32.037Z,0.00
2024-04-23T03:19:32.003Z,0.00
2024-04-23T03:20:32.011Z,0.00
2024-04-23T03:21:31.963Z,0.00
2024-04-23T03:22:32.000Z,0.00
2024-04-23T03:23:31.963Z,0.00
2024-04-23T03:24:31.923Z,0.00
2024-04-23T03:25:31.948Z,0.00
2024-04-23T03:26:31.901Z,0.00
2024-04-23T03:27:31.906Z,0.00
2024-04-23T03:28:31.916Z,0.00
2024-04-23T03:29:31.893Z,0.00
2024-04-23T03:30:31.867Z,0.00
2024-04-23T03:31:31.891Z,0.00
2024-04-23T03:32:31.939Z,0.00
2024-04-23T03:33:31.804Z,1.00
2024-04-23T03:34:31.810Z,1.00
2024-04-23T03:35:31.758Z,1.00
2024-04-23T03:36:31.754Z,1.00
2024-04-23T03:37:31.822Z,1.00
2024-04-23T03:38:31.726Z,1.00
2024-04-23T03:39:31.753Z,1.00
2024-04-23T03:40:31.746Z,2.00
2024-04-23T03:41:31.764Z,0.00
2024-04-23T03:42:31.752Z,2.00
2024-04-23T03:43:31.735Z,1.00
2024-04-23T03:44:31.645Z,1.00
2024-04-23T03:45:31.655Z,2.00
2024-04-23T03:46:31.657Z,1.00
2024-04-23T03:47:31.720Z,1.00
2024-04-23T03:48:31.641Z,3.00
2024-04-23T03:49:31.693Z,1.00
2024-04-23T03:50:31.615Z,4.00
2024-04-23T03:51:31.628Z,3.00
2024-04-23T03:52:31.625Z,3.00
2024-04-23T03:53:31.577Z,5.00
2024-04-23T03:54:31.564Z,4.00
2024-04-23T03:55:31.627Z,4.00
2024-04-23T03:56:31.557Z,6.00
2024-04-23T03:57:31.562Z,6.00
2024-04-23T03:58:31.555Z,8.00
2024-04-23T03:59:31.514Z,16.00
2024-04-23T04:00:31.530Z,13.00
2024-04-23T04:01:31.568Z,12.00
2024-04-23T04:02:31.671Z,17.00
2024-04-23T04:03:31.593Z,18.00
2024-04-23T04:04:31.502Z,25.00
2024-04-23T04:05:31.488Z,28.00
2024-04-23T04:06:31.441Z,36.00
2024-04-23T04:07:31.449Z,42.00
2024-04-23T04:08:31.439Z,46.00
2024-04-23T04:09:31.458Z,52.00
2024-04-23T04:10:31.447Z,62.00
2024-04-23T04:11:31.449Z,69.00
2024-04-23T04:12:31.380Z,82.00
2024-04-23T04:13:31.434Z,88.00
2024-04-23T04:14:31.387Z,98.00
2024-04-23T04:15:31.368Z,109.00
2024-04-23T04:16:35.232Z,125.00
2024-04-23T04:17:31.457Z,136.00
2024-04-23T04:18:31.340Z,150.00
2024-04-23T04:19:31.317Z,165.00
2024-04-23T04:20:31.304Z,180.00
2024-04-23T04:21:31.288Z,195.00
2024-04-23T04:22:31.326Z,209.00
2024-04-23T04:23:31.290Z,225.00
2024-04-23T04:24:31.269Z,245.00
2024-04-23T04:25:31.265Z,260.00
2024-04-23T04:26:31.236Z,276.00
2024-04-23T04:27:31.245Z,298.00
2024-04-23T04:28:31.462Z,314.00
2024-04-23T04:29:31.209Z,343.00
2024-04-23T04:30:31.215Z,381.00
2024-04-23T04:31:31.219Z,416.00
2024-04-23T04:32:31.203Z,450.00
2024-04-23T04:33:31.209Z,489.00
2024-04-23T04:34:31.189Z,511.00
2024-04-23T04:35:31.150Z,527.00
2024-04-23T04:36:31.187Z,562.00
2024-04-23T04:37:31.202Z,605.00
2024-04-23T04:38:31.150Z,643.00
2024-04-23T04:39:31.116Z,687.00
2024-04-23T04:40:31.123Z,719.00
2024-04-23T04:41:31.119Z,757.00
2024-04-23T04:42:31.083Z,805.00
2024-04-23T04:43:31.128Z,842.00
2024-04-23T04:44:31.075Z,890.00
2024-04-23T04:45:31.060Z,928.00
2024-04-23T04:46:31.122Z,970.00
2024-04-23T04:47:31.156Z,1016.00
2024-04-23T04:48:31.057Z,1007.00
2024-04-23T04:49:31.025Z,437.00
2024-04-23T04:50:31.014Z,771.00
2024-04-23T04:51:31.015Z,1311.00
2024-04-23T04:52:31.035Z,1830.00
2024-04-23T04:53:30.992Z,2204.00
2024-04-23T04:54:30.955Z,2498.00
2024-04-23T04:55:30.984Z,2572.00
2024-04-23T04:56:30.970Z,2653.00
2024-04-23T04:57:30.949Z,2733.00
2024-04-23T04:58:30.986Z,2837.00
2024-04-23T04:59:30.922Z,3027.00
2024-04-23T05:00:30.875Z,3338.00
2024-04-23T05:01:30.942Z,2982.00
2024-04-23T05:02:30.889Z,3113.00
2024-04-23T05:03:30.848Z,3276.00
2024-04-23T05:04:30.915Z,3339.00
2024-04-23T05:05:30.882Z,3454.00
2024-04-23T05:06:30.848Z,4454.00
2024-04-23T05:07:30.891Z,4804.00
2024-04-23T05:08:30.813Z,4448.00
2024-04-23T05:09:30.814Z,4411.00
2024-04-23T05:10:30.848Z,5226.00
2024-04-23T05:11:30.815Z,5574.00
2024-04-23T05:12:30.788Z,5546.00
2024-04-23T05:13:30.801Z,5954.00
2024-04-23T05:14:30.779Z,6356.00
2024-04-23T05:15:30.745Z,6224.00
2024-04-23T05:16:30.786Z,6340.00
2024-04-23T05:17:30.797Z,6632.00
2024-04-23T05:18:30.719Z,6824.00
2024-04-23T05:19:30.724Z,7030.00
2024-04-23T05:20:30.713Z,7533.00
2024-04-23T05:21:37.728Z,7476.00
2024-04-23T05:22:30.703Z,7789.00
2024-04-23T05:23:30.656Z,8120.00
2024-04-23T05:24:30.649Z,8122.00
2024-04-23T05:25:30.665Z,8040.00
2024-04-23T05:26:30.616Z,8468.00
2024-04-23T05:27:30.624Z,8848.00
2024-04-23T05:28:30.625Z,8985.00
2024-04-23T05:29:30.646Z,9147.00
2024-04-23T05:30:30.604Z,8896.00
2024-04-23T05:31:30.633Z,9533.00
2024-04-23T05:32:30.628Z,11455.00
2024-04-23T05:33:30.745Z,12991.00
2024-04-23T05:34:30.638Z,11083.00
2024-04-23T05:35:30.545Z,8321.00
2024-04-23T05:36:30.525Z,4976.00
2024-04-23T05:37:30.675Z,4292.00
2024-04-23T05:38:30.578Z,4123.00
2024-04-23T05:39:30.516Z,3453.00
2024-04-23T05:40:30.549Z,2716.00
2024-04-23T05:41:30.528Z,7868.00
2024-04-23T05:42:30.469Z,8421.00
2024-04-23T05:43:30.490Z,6501.00
2024-04-23T05:44:30.470Z,4286.00
2024-04-23T05:45:30.439Z,3543.00
2024-04-23T05:46:30.453Z,7402.00
2024-04-23T05:47:30.707Z,10770.00
2024-04-23T05:48:30.468Z,11276.00
2024-04-23T05:49:30.461Z,11544.00
2024-04-23T05:50:30.392Z,12008.00
2024-04-23T05:51:30.365Z,11149.00
2024-04-23T05:52:30.924Z,13804.00
2024-04-23T05:53:30.418Z,14380.00
2024-04-23T05:54:30.383Z,6367.00
2024-04-23T05:55:30.371Z,8548.00
2024-04-23T05:56:30.367Z,11949.00
2024-04-23T05:57:30.379Z,12887.00
2024-04-23T05:58:30.346Z,8771.00
2024-04-23T05:59:30.309Z,14199.00
2024-04-23T06:00:30.478Z,9756.00
2024-04-23T06:01:30.336Z,12496.00
2024-04-23T06:02:30.303Z,14516.00
2024-04-23T06:03:30.303Z,4891.00
2024-04-23T06:04:30.301Z,10777.00
2024-04-23T06:05:30.249Z,12393.00
2024-04-23T06:06:30.308Z,8806.00
2024-04-23T06:07:30.218Z,5914.00
2024-04-23T06:08:30.218Z,4350.00
2024-04-23T06:09:30.183Z,5810.00
2024-04-23T06:10:30.232Z,4885.00
2024-04-23T06:11:30.248Z,6532.00
2024-04-23T06:12:30.166Z,4569.00
2024-04-23T06:13:30.173Z,11579.00
2024-04-23T06:14:30.214Z,9566.00
2024-04-23T06:15:30.156Z,8474.00
2024-04-23T06:16:30.175Z,4335.00
2024-04-23T06:17:35.951Z,2563.00
2024-04-23T06:18:30.178Z,9969.00
2024-04-23T06:19:30.161Z,9781.00
2024-04-23T06:20:30.130Z,4954.00
2024-04-23T06:21:30.050Z,15091.00
2024-04-23T06:22:30.091Z,10335.00
2024-04-23T06:23:30.029Z,12590.00
2024-04-23T06:24:30.054Z,13494.00
2024-04-23T06:25:30.044Z,13753.00
2024-04-23T06:26:30.066Z,13882.00
2024-04-23T06:27:30.017Z,13763.00
2024-04-23T06:28:30.067Z,14217.00
2024-04-23T06:29:30.005Z,14280.00
2024-04-23T06:30:30.074Z,13852.00
2024-04-23T06:31:31.828Z,14186.00
2024-04-23T06:32:30.041Z,13869.00
2024-04-23T06:33:29.955Z,13924.00
2024-04-23T06:34:29.967Z,14253.00
2024-04-23T06:35:29.959Z,14747.00
2024-04-23T06:36:29.906Z,15447.00
2024-04-23T06:37:29.940Z,15050.00
2024-04-23T06:38:29.927Z,14530.00
2024-04-23T06:39:29.900Z,15462.00
2024-04-23T06:40:29.900Z,15295.00
2024-04-23T06:41:29.860Z,15342.00
2024-04-23T06:42:29.875Z,15946.00
2024-04-23T06:43:29.906Z,15885.00
2024-04-23T06:44:29.887Z,16134.00
2024-04-23T06:45:29.823Z,16036.00
2024-04-23T06:46:29.830Z,16329.00
2024-04-23T06:47:29.861Z,16323.00
2024-04-23T06:48:29.829Z,16284.00
2024-04-23T06:49:29.807Z,16441.00
2024-04-23T06:50:29.788Z,16515.00
2024-04-23T06:51:29.766Z,16553.00
2024-04-23T06:52:29.863Z,16342.00
2024-04-23T06:53:29.819Z,16673.00
2024-04-23T06:54:29.717Z,16555.00
2024-04-23T06:55:29.841Z,16748.00
2024-04-23T06:56:29.708Z,16608.00
2024-04-23T06:57:29.737Z,17082.00
2024-04-23T06:58:31.675Z,16985.00
2024-04-23T06:59:29.693Z,17021.00
2024-04-23T07:00:29.780Z,16864.00
2024-04-23T07:01:29.678Z,16754.00
2024-04-23T07:02:29.760Z,16916.00
2024-04-23T07:03:29.700Z,16999.00
2024-04-23T07:04:29.698Z,17067.00
2024-04-23T07:05:29.619Z,17018.00
2024-04-23T07:06:29.661Z,17122.00
2024-04-23T07:07:29.636Z,17162.00
2024-04-23T07:08:29.593Z,17145.00
2024-04-23T07:09:29.587Z,17175.00
2024-04-23T07:10:29.636Z,17221.00
2024-04-23T07:11:29.656Z,16831.00
2024-04-23T07:12:29.616Z,17059.00
2024-04-23T07:13:29.568Z,17075.00
2024-04-23T07:14:29.509Z,17086.00
2024-04-23T07:15:29.520Z,16970.00
2024-04-23T07:16:29.550Z,16703.00
2024-04-23T07:17:29.695Z,16630.00
2024-04-23T07:18:29.517Z,16540.00
2024-04-23T07:19:29.553Z,16272.00
2024-04-23T07:20:29.470Z,16397.00
2024-04-23T07:21:29.479Z,15394.00
2024-04-23T07:22:29.454Z,15707.00
2024-04-23T07:23:29.427Z,15502.00
2024-04-23T07:24:29.440Z,15164.00
2024-04-23T07:25:29.430Z,15003.00
2024-04-23T07:26:29.420Z,15147.00
2024-04-23T07:27:29.424Z,14929.00
2024-04-23T07:28:29.424Z,14929.00
2024-04-23T07:29:29.370Z,14671.00
2024-04-23T07:30:29.379Z,14481.00
2024-04-23T07:31:29.355Z,14039.00
2024-04-23T07:32:29.390Z,13840.00
2024-04-23T07:33:29.499Z,13728.00
2024-04-23T07:34:29.472Z,13642.00
2024-04-23T07:35:29.438Z,13435.00
2024-04-23T07:36:29.363Z,13482.00
2024-04-23T07:37:29.302Z,13299.00
2024-04-23T07:38:29.304Z,13072.00
2024-04-23T07:39:29.300Z,13003.00
2024-04-23T07:40:29.335Z,12984.00
2024-04-23T07:41:29.285Z,12699.00
2024-04-23T07:42:29.270Z,12328.00
2024-04-23T07:43:29.359Z,12231.00
2024-04-23T07:44:29.334Z,12321.00
2024-04-23T07:45:29.234Z,12170.00
2024-04-23T07:46:29.354Z,12281.00
2024-04-23T07:47:29.301Z,11913.00
2024-04-23T07:48:29.248Z,12008.00
2024-04-23T07:49:29.287Z,11702.00
2024-04-23T07:50:29.170Z,11708.00
2024-04-23T07:51:29.375Z,11382.00
2024-04-23T07:52:29.164Z,11319.00
2024-04-23T07:53:29.154Z,11150.00
2024-04-23T07:54:29.249Z,11010.00
2024-04-23T07:55:29.121Z,10858.00
2024-04-23T07:56:29.108Z,10777.00
2024-04-23T07:57:29.090Z,10686.00
2024-04-23T07:58:29.097Z,10695.00
2024-04-23T07:59:29.091Z,10622.00
2024-04-23T08:00:30.055Z,10539.00
2024-04-23T08:01:29.075Z,10453.00
2024-04-23T08:02:29.049Z,10314.00
2024-04-23T08:03:29.055Z,10265.00
2024-04-23T08:04:29.010Z,10204.00
2024-04-23T08:05:29.032Z,9974.00
2024-04-23T08:06:28.985Z,10030.00
2024-04-23T08:07:29.004Z,9881.00
2024-04-23T08:08:28.991Z,9817.00
2024-04-23T08:09:28.950Z,9745.00
2024-04-23T08:10:28.965Z,9681.00
2024-04-23T08:11:29.064Z,9661.00
2024-04-23T08:12:28.948Z,9566.00
2024-04-23T08:13:28.908Z,9547.00
2024-04-23T08:14:28.898Z,9436.00
2024-04-23T08:15:28.919Z,9284.00
2024-04-23T08:16:28.912Z,9314.00
2024-04-23T08:17:29.079Z,9216.00
2024-04-23T08:18:28.943Z,9132.00
2024-04-23T08:19:28.830Z,9095.00
2024-04-23T08:20:28.825Z,8958.00
2024-04-23T08:21:28.831Z,8891.00
2024-04-23T08:22:28.867Z,8912.00
2024-04-23T08:23:28.794Z,8753.00
2024-04-23T08:24:28.821Z,8846.00
2024-04-23T08:25:28.792Z,8689.00
2024-04-23T08:26:28.790Z,8626.00
2024-04-23T08:27:28.810Z,8711.00
2024-04-23T08:28:28.756Z,8542.00
2024-04-23T08:29:28.763Z,8443.00
2024-04-23T08:30:28.774Z,8284.00
2024-04-23T08:31:28.755Z,8411.00
2024-04-23T08:32:30.835Z,8231.00
2024-04-23T08:33:28.771Z,8394.00
2024-04-23T08:34:28.709Z,8702.00
2024-04-23T08:35:28.766Z,8419.00
2024-04-23T08:36:28.674Z,8112.00
2024-04-23T08:37:28.662Z,8082.00
2024-04-23T08:38:30.531Z,8059.00
2024-04-23T08:39:28.723Z,7915.00
2024-04-23T08:40:28.660Z,7903.00
2024-04-23T08:41:28.727Z,8820.00
2024-04-23T08:42:31.037Z,5787.00
2024-04-23T08:43:28.638Z,8192.00
2024-04-23T08:44:28.669Z,9532.00
2024-04-23T08:45:28.663Z,5889.00
2024-04-23T08:46:28.559Z,4054.00
2024-04-23T08:47:28.754Z,4302.00
2024-04-23T08:48:32.720Z,1619.00
2024-04-23T08:49:28.705Z,8511.00
2024-04-23T08:50:28.603Z,8061.00
2024-04-23T08:51:28.537Z,8493.00
2024-04-23T08:52:28.509Z,7203.00
2024-04-23T08:53:28.510Z,8287.00
2024-04-23T08:54:28.516Z,7704.00
2024-04-23T08:55:28.527Z,8773.00
2024-04-23T08:56:28.470Z,5942.00
2024-04-23T08:57:28.458Z,7390.00
2024-04-23T08:58:28.466Z,1816.00
2024-04-23T08:59:28.486Z,2861.00
2024-04-23T09:00:32.801Z,7458.00
2024-04-23T09:01:28.488Z,7505.00
2024-04-23T09:02:28.456Z,9674.00
2024-04-23T09:03:28.414Z,7680.00
2024-04-23T09:04:28.546Z,5990.00
2024-04-23T09:05:28.440Z,3779.00
2024-04-23T09:06:28.373Z,2463.00
2024-04-23T09:07:32.945Z,9350.00
2024-04-23T09:08:28.366Z,5382.00
2024-04-23T09:09:28.350Z,2438.00
2024-04-23T09:10:28.340Z,8738.00
2024-04-23T09:11:28.580Z,4813.00
2024-04-23T09:12:28.323Z,4107.00
2024-04-23T09:13:28.327Z,1586.00
2024-04-23T09:14:28.323Z,8102.00
2024-04-23T09:15:28.302Z,7703.00
2024-04-23T09:16:28.280Z,7376.00
2024-04-23T09:17:28.343Z,7561.00
2024-04-23T09:18:28.365Z,7892.00
2024-04-23T09:19:28.274Z,7411.00
2024-04-23T09:20:28.243Z,7243.00
2024-04-23T09:21:28.256Z,7744.00
2024-04-23T09:22:28.206Z,8387.00
2024-04-23T09:23:28.222Z,1624.00
2024-04-23T09:24:28.199Z,7331.00
2024-04-23T09:25:28.185Z,7564.00
2024-04-23T09:26:28.191Z,7270.00
2024-04-23T09:27:28.188Z,7683.00
2024-04-23T09:28:28.206Z,8452.00
2024-04-23T09:29:28.211Z,3125.00
2024-04-23T09:30:28.170Z,5981.00
2024-04-23T09:31:28.247Z,5186.00
2024-04-23T09:32:28.232Z,3892.00
2024-04-23T09:33:28.285Z,1744.00
2024-04-23T09:34:32.436Z,3872.00
2024-04-23T09:35:28.123Z,7097.00
2024-04-23T09:36:28.107Z,7217.00
2024-04-23T09:37:28.069Z,8246.00
2024-04-23T09:38:28.061Z,3720.00
2024-04-23T09:39:28.139Z,7543.00
2024-04-23T09:40:28.017Z,3041.00
2024-04-23T09:41:28.272Z,1677.00
2024-04-23T09:42:28.023Z,7656.00
2024-04-23T09:43:27.994Z,4005.00
2024-04-23T09:44:28.006Z,3791.00
2024-04-23T09:45:27.990Z,3708.00
2024-04-23T09:46:27.937Z,4023.00
2024-04-23T09:47:27.994Z,1994.00
2024-04-23T09:48:28.160Z,6290.00
2024-04-23T09:49:27.954Z,3025.00
2024-04-23T09:50:27.924Z,7811.00
2024-04-23T09:51:27.914Z,4882.00
2024-04-23T09:52:30.205Z,3846.00
2024-04-23T09:53:27.867Z,1482.00
2024-04-23T09:54:27.898Z,7432.00
2024-04-23T09:55:27.884Z,5981.00
2024-04-23T09:56:27.851Z,6339.00
2024-04-23T09:57:27.867Z,6659.00
2024-04-23T09:58:30.258Z,6556.00
2024-04-23T09:59:27.855Z,6313.00
2024-04-23T10:00:27.862Z,6454.00
2024-04-23T10:01:27.849Z,6439.00
2024-04-23T10:02:27.927Z,6943.00
2024-04-23T10:03:27.912Z,8293.00
2024-04-23T10:04:30.297Z,1839.00
2024-04-23T10:05:27.814Z,6977.00
2024-04-23T10:06:27.788Z,6958.00
2024-04-23T10:07:27.750Z,6910.00
2024-04-23T10:08:27.786Z,8758.00
2024-04-23T10:09:27.766Z,5205.00
2024-04-23T10:10:27.685Z,4198.00
2024-04-23T10:11:27.936Z,4565.00
2024-04-23T10:12:27.677Z,1927.00
2024-04-23T10:13:27.684Z,7703.00
2024-04-23T10:14:27.680Z,7797.00
2024-04-23T10:15:27.665Z,7552.00
2024-04-23T10:16:27.630Z,7450.00
2024-04-23T10:17:27.646Z,8220.00
2024-04-23T10:18:27.700Z,3365.00
2024-04-23T10:19:27.632Z,5778.00
2024-04-23T10:20:27.602Z,3538.00
2024-04-23T10:21:27.630Z,2932.00
2024-04-23T10:22:27.572Z,2171.00
2024-04-23T10:23:27.566Z,7156.00
2024-04-23T10:24:27.578Z,3690.00
2024-04-23T10:25:27.551Z,6526.00
2024-04-23T10:26:27.546Z,5755.00
2024-04-23T10:27:27.559Z,6342.00
2024-04-23T10:28:27.506Z,6376.00
2024-04-23T10:29:27.578Z,6527.00
2024-04-23T10:30:27.510Z,6776.00
2024-04-23T10:31:27.501Z,7392.00
2024-04-23T10:32:27.715Z,7964.00
2024-04-23T10:33:27.560Z,3195.00
2024-04-23T10:34:27.495Z,5008.00
2024-04-23T10:35:27.450Z,6739.00
2024-04-23T10:36:27.439Z,4368.00
2024-04-23T10:37:27.444Z,4005.00
2024-04-23T10:38:27.428Z,3936.00
2024-04-23T10:39:27.483Z,4094.00
2024-04-23T10:40:27.547Z,1688.00
2024-04-23T10:41:27.462Z,8362.00
2024-04-23T10:42:27.382Z,4294.00
2024-04-23T10:43:27.517Z,5345.00
2024-04-23T10:44:27.487Z,4770.00
2024-04-23T10:45:27.467Z,7358.00
2024-04-23T10:46:27.351Z,5280.00
2024-04-23T10:47:27.394Z,4877.00
2024-04-23T10:48:27.469Z,4538.00
2024-04-23T10:49:27.344Z,4304.00
2024-04-23T10:50:27.364Z,4543.00
2024-04-23T10:51:27.292Z,4661.00
2024-04-23T10:52:27.324Z,4642.00
2024-04-23T10:53:27.287Z,4249.00
2024-04-23T10:54:27.355Z,4096.00
2024-04-23T10:55:27.310Z,4950.00
2024-04-23T10:56:27.235Z,4705.00
2024-04-23T10:57:27.290Z,4811.00
2024-04-23T10:58:27.315Z,4651.00
2024-04-23T10:59:30.309Z,3966.00
2024-04-23T11:00:27.230Z,3949.00
2024-04-23T11:01:27.234Z,3968.00
2024-04-23T11:02:27.364Z,4052.00
2024-04-23T11:03:27.750Z,3900.00
2024-04-23T11:04:27.222Z,4063.00
2024-04-23T11:05:27.226Z,4092.00
2024-04-23T11:06:27.281Z,4299.00
2024-04-23T11:07:27.116Z,4390.00
2024-04-23T11:08:27.093Z,4381.00
2024-04-23T11:09:27.121Z,4608.00
2024-04-23T11:10:27.163Z,5021.00
2024-04-23T11:11:27.269Z,3034.00
2024-04-23T11:12:27.107Z,6674.00
2024-04-23T11:13:27.057Z,4343.00
2024-04-23T11:14:27.069Z,4230.00
2024-04-23T11:15:27.048Z,4317.00
2024-04-23T11:16:27.027Z,4450.00
2024-04-23T11:17:27.340Z,4672.00
2024-04-23T11:18:27.450Z,4405.00
2024-04-23T11:19:27.026Z,4761.00
2024-04-23T11:20:26.976Z,4895.00
2024-04-23T11:21:27.158Z,5220.00
2024-04-23T11:22:26.972Z,7465.00
2024-04-23T11:23:26.944Z,5371.00
2024-04-23T11:24:26.991Z,4416.00
2024-04-23T11:25:26.977Z,4363.00
2024-04-23T11:26:26.999Z,4295.00
2024-04-23T11:27:26.928Z,4379.00
2024-04-23T11:28:26.900Z,4511.00
2024-04-23T11:29:26.919Z,4559.00
2024-04-23T11:30:26.981Z,4619.00
2024-04-23T11:31:26.883Z,4731.00
2024-04-23T11:32:26.971Z,4813.00
2024-04-23T11:33:26.944Z,4767.00
2024-04-23T11:34:26.869Z,4757.00
2024-04-23T11:35:26.849Z,4640.00
2024-04-23T11:36:26.983Z,4784.00
2024-04-23T11:37:26.891Z,4897.00
2024-04-23T11:38:26.813Z,4513.00
2024-04-23T11:39:26.845Z,4448.00
2024-04-23T11:40:26.829Z,4323.00
2024-04-23T11:41:26.774Z,4271.00
2024-04-23T11:42:26.769Z,4510.00
2024-04-23T11:43:26.786Z,4750.00
2024-04-23T11:44:26.761Z,4512.00
2024-04-23T11:45:26.733Z,4362.00
2024-04-23T11:46:26.755Z,4525.00
2024-04-23T11:47:28.917Z,4438.00
2024-04-23T11:48:26.769Z,3892.00
2024-04-23T11:49:26.708Z,4688.00
2024-04-23T11:50:26.688Z,5081.00
2024-04-23T11:51:26.687Z,4256.00
2024-04-23T11:52:26.680Z,4119.00
2024-04-23T11:53:26.676Z,3921.00
2024-04-23T11:54:26.667Z,3789.00
2024-04-23T11:55:26.640Z,3915.00
2024-04-23T11:56:26.635Z,4097.00
2024-04-23T11:57:26.600Z,4261.00
2024-04-23T11:58:26.660Z,4421.00
2024-04-23T11:59:26.612Z,4599.00
2024-04-23T12:00:26.600Z,4542.00
2024-04-23T12:01:26.584Z,4708.00
2024-04-23T12:02:26.560Z,4726.00
2024-04-23T12:03:26.561Z,4686.00
2024-04-23T12:04:26.615Z,4503.00
2024-04-23T12:05:26.647Z,4355.00
2024-04-23T12:06:26.646Z,4304.00
2024-04-23T12:07:26.522Z,2700.00
2024-04-23T12:08:26.483Z,6283.00
2024-04-23T12:09:26.483Z,4425.00
2024-04-23T12:10:26.484Z,4477.00
2024-04-23T12:11:26.523Z,4256.00
2024-04-23T12:12:26.444Z,4348.00
2024-04-23T12:13:26.438Z,4467.00
2024-04-23T12:14:26.458Z,4047.00
2024-04-23T12:15:26.423Z,4468.00
2024-04-23T12:16:26.388Z,4945.00
2024-04-23T12:17:26.472Z,4964.00
2024-04-23T12:18:26.525Z,5180.00
2024-04-23T12:19:26.427Z,4962.00
2024-04-23T12:20:26.462Z,4725.00
2024-04-23T12:21:26.379Z,4553.00
2024-04-23T12:22:26.361Z,4498.00
2024-04-23T12:23:26.386Z,4426.00
2024-04-23T12:24:28.632Z,4463.00
2024-04-23T12:25:26.314Z,4566.00